Flugplatz Biberach a.d. Riß

Für EDMB sind keine METAR/TAF Berichte vorhanden.
Es werden die Flugwettermeldungen vom Flugplatz Laupheim Airport in 16 km Entfernung angezeigt.

Bericht für ETHL

vom 01.12. um 09:20 UTC

Wind 13 kt aus 230°

Sichtweite 10 km oder mehr

gering bewölkt in 2000 ft

aufgelockert bewölkt in 15000 ft

Temperatur 5.0°C

Taupunkt 2.0°C

Luftfeuchtigkeit 81%

Luftdruck 1004 hPa

ETHL 010920Z 23013KT 9999 FEW020 SCT150 05/02 Q1004 BLU+BLU TEMPO BLU+

Prognose für ETHL

vom 01.12. um 08:20 UTC

Zwischen 09:00 UTC und 18:00 UTC

Wind 15 kt aus 240° in Böen 25 kt

Sichtweite 10 km oder mehr

keine signifikanten Wettererscheinungen

gering bewölkt in 1500 ft

aufgebrochene Bewölkung in 4000 ft


Zwischen 13:00 UTC und 18:00 UTC zeitweise

Wind 20 kt aus 250° in Böen 30 kt

Sichtweite 7000 m

schwacher Regen

aufgelockert bewölkt in 1500 ft

aufgebrochene Bewölkung in 3500 ft

TAF COR ETHL 010820Z 0109/0118 24015G25KT 9999 NSW FEW015 BKN040 TEMPO 0113/0118 25020G30KT 7000 -RA SCT015 BKN035
Impressum